sensor_id;sensor_type;location;lat;lon;timestamp;pressure;altitude;pressure_sealevel;temperature;humidity
33845;BME280;20145;43.118;25.694;2022-12-18T00:00:56;100368.00;;;10.43;85.41
33845;BME280;20145;43.118;25.694;2022-12-18T00:03:21;100365.41;;;10.35;86.52
33845;BME280;20145;43.118;25.694;2022-12-18T00:05:47;100369.66;;;10.30;87.19
33845;BME280;20145;43.118;25.694;2022-12-18T00:08:13;100364.44;;;10.24;87.02
33845;BME280;20145;43.118;25.694;2022-12-18T00:10:39;100368.75;;;10.25;86.43
33845;BME280;20145;43.118;25.694;2022-12-18T00:13:04;100371.31;;;10.20;86.31
33845;BME280;20145;43.118;25.694;2022-12-18T00:15:30;100373.88;;;10.17;86.47
33845;BME280;20145;43.118;25.694;2022-12-18T00:17:55;100379.06;;;10.20;87.99
33845;BME280;20145;43.118;25.694;2022-12-18T00:20:20;100373.88;;;10.19;87.91
33845;BME280;20145;43.118;25.694;2022-12-18T00:22:51;100375.63;;;10.20;88.33
33845;BME280;20145;43.118;25.694;2022-12-18T00:25:16;100379.94;;;10.25;89.15
33845;BME280;20145;43.118;25.694;2022-12-18T00:27:42;100382.59;;;10.32;89.07
33845;BME280;20145;43.118;25.694;2022-12-18T00:30:07;100385.16;;;10.33;88.74
33845;BME280;20145;43.118;25.694;2022-12-18T00:32:33;100386.88;;;10.36;87.28
33845;BME280;20145;43.118;25.694;2022-12-18T00:34:58;100391.22;;;10.43;88.25
33845;BME280;20145;43.118;25.694;2022-12-18T00:37:24;100402.38;;;10.42;86.68
33845;BME280;20145;43.118;25.694;2022-12-18T00:39:49;100406.69;;;10.41;86.78
33845;BME280;20145;43.118;25.694;2022-12-18T00:42:14;100411.84;;;10.40;86.92
33845;BME280;20145;43.118;25.694;2022-12-18T00:44:58;100404.97;;;10.40;87.75
33845;BME280;20145;43.118;25.694;2022-12-18T00:47:23;100409.25;;;10.35;87.59
33845;BME280;20145;43.118;25.694;2022-12-18T00:49:49;100419.53;;;10.31;87.43
33845;BME280;20145;43.118;25.694;2022-12-18T00:52:14;100419.47;;;10.20;87.19
33845;BME280;20145;43.118;25.694;2022-12-18T00:54:39;100416.81;;;10.11;87.04
33845;BME280;20145;43.118;25.694;2022-12-18T00:57:05;100416.72;;;9.97;86.73
33845;BME280;20145;43.118;25.694;2022-12-18T00:59:30;100414.97;;;9.94;87.82
33845;BME280;20145;43.118;25.694;2022-12-18T01:01:55;100417.56;;;9.94;86.93
33845;BME280;20145;43.118;25.694;2022-12-18T01:04:21;100418.41;;;9.92;86.63
33845;BME280;20145;43.118;25.694;2022-12-18T01:06:46;100425.31;;;9.93;87.16
33845;BME280;20145;43.118;25.694;2022-12-18T01:09:12;100432.16;;;9.94;87.05
33845;BME280;20145;43.118;25.694;2022-12-18T01:11:37;100431.28;;;9.87;86.57
33845;BME280;20145;43.118;25.694;2022-12-18T01:14:02;100430.34;;;9.79;88.09
33845;BME280;20145;43.118;25.694;2022-12-18T01:16:28;100438.91;;;9.75;86.88
33845;BME280;20145;43.118;25.694;2022-12-18T01:18:54;100437.19;;;9.75;87.36
33845;BME280;20145;43.118;25.694;2022-12-18T01:21:20;100440.66;;;9.79;87.34
33845;BME280;20145;43.118;25.694;2022-12-18T01:23:45;100437.19;;;9.77;87.00
33845;BME280;20145;43.118;25.694;2022-12-18T01:26:14;100438.91;;;9.76;86.57
33845;BME280;20145;43.118;25.694;2022-12-18T01:28:40;100443.25;;;9.79;86.48
33845;BME280;20145;43.118;25.694;2022-12-18T01:31:16;100444.09;;;9.79;86.10
33845;BME280;20145;43.118;25.694;2022-12-18T01:33:43;100448.41;;;9.82;86.37
33845;BME280;20145;43.118;25.694;2022-12-18T01:36:13;100448.34;;;9.74;85.76
33845;BME280;20145;43.118;25.694;2022-12-18T01:38:39;100444.94;;;9.77;86.52
33845;BME280;20145;43.118;25.694;2022-12-18T01:41:04;100446.69;;;9.81;86.49
33845;BME280;20145;43.118;25.694;2022-12-18T01:46:07;100453.53;;;9.79;86.36
33845;BME280;20145;43.118;25.694;2022-12-18T01:48:33;100460.38;;;9.75;85.76
33845;BME280;20145;43.118;25.694;2022-12-18T01:51:01;100448.38;;;9.77;85.24
33845;BME280;20145;43.118;25.694;2022-12-18T01:53:26;100455.28;;;9.83;84.70
33845;BME280;20145;43.118;25.694;2022-12-18T01:55:53;100465.59;;;9.81;85.32
33845;BME280;20145;43.118;25.694;2022-12-18T01:58:21;100460.47;;;9.85;84.93
33845;BME280;20145;43.118;25.694;2022-12-18T02:00:48;100461.28;;;9.83;84.61
33845;BME280;20145;43.118;25.694;2022-12-18T02:03:14;100463.03;;;9.81;85.07
33845;BME280;20145;43.118;25.694;2022-12-18T02:10:39;100462.19;;;9.89;84.89
33845;BME280;20145;43.118;25.694;2022-12-18T02:15:38;100469.13;;;9.96;85.03
33845;BME280;20145;43.118;25.694;2022-12-18T02:18:23;100464.00;;;9.99;86.22
33845;BME280;20145;43.118;25.694;2022-12-18T02:21:12;100464.00;;;9.99;85.69
33845;BME280;20145;43.118;25.694;2022-12-18T02:26:27;100478.56;;;9.94;86.69
33845;BME280;20145;43.118;25.694;2022-12-18T02:31:23;100480.09;;;9.72;84.83
33845;BME280;20145;43.118;25.694;2022-12-18T02:33:50;100494.47;;;9.45;85.12
33845;BME280;20145;43.118;25.694;2022-12-18T02:36:16;100495.00;;;9.16;85.98
33845;BME280;20145;43.118;25.694;2022-12-18T02:38:43;100488.03;;;9.08;87.67
33845;BME280;20145;43.118;25.694;2022-12-18T02:41:10;100493.22;;;9.11;88.11
33845;BME280;20145;43.118;25.694;2022-12-18T02:43:35;100495.75;;;9.05;88.42
33845;BME280;20145;43.118;25.694;2022-12-18T02:46:00;100498.28;;;9.02;87.52
33845;BME280;20145;43.118;25.694;2022-12-18T02:48:45;100496.56;;;9.02;88.93
33845;BME280;20145;43.118;25.694;2022-12-18T02:51:15;100497.38;;;9.00;88.18
33845;BME280;20145;43.118;25.694;2022-12-18T02:53:53;100497.41;;;9.03;87.74
33845;BME280;20145;43.118;25.694;2022-12-18T02:56:22;100495.75;;;9.05;87.89
33845;BME280;20145;43.118;25.694;2022-12-18T03:03:54;100517.94;;;8.97;87.63
33845;BME280;20145;43.118;25.694;2022-12-18T03:06:21;100522.16;;;8.91;87.19
33845;BME280;20145;43.118;25.694;2022-12-18T03:08:49;100528.09;;;8.84;87.64
33845;BME280;20145;43.118;25.694;2022-12-18T03:11:17;100537.22;;;8.64;86.96
33845;BME280;20145;43.118;25.694;2022-12-18T03:14:03;100539.81;;;8.62;87.04
33845;BME280;20145;43.118;25.694;2022-12-18T03:16:29;100550.84;;;8.55;86.86
33845;BME280;20145;43.118;25.694;2022-12-18T03:18:57;100554.31;;;8.57;86.96
33845;BME280;20145;43.118;25.694;2022-12-18T03:21:34;100562.03;;;8.59;87.36
33845;BME280;20145;43.118;25.694;2022-12-18T03:24:03;100562.97;;;8.64;86.98
33845;BME280;20145;43.118;25.694;2022-12-18T03:26:31;100573.22;;;8.61;88.01
33845;BME280;20145;43.118;25.694;2022-12-18T03:28:58;100572.94;;;8.44;86.47
33845;BME280;20145;43.118;25.694;2022-12-18T03:31:24;100582.75;;;8.16;88.84
33845;BME280;20145;43.118;25.694;2022-12-18T03:33:54;100582.97;;;8.29;88.62
33845;BME280;20145;43.118;25.694;2022-12-18T03:36:20;100589.97;;;8.37;88.43
33845;BME280;20145;43.118;25.694;2022-12-18T03:38:46;100596.69;;;8.29;88.52
33845;BME280;20145;43.118;25.694;2022-12-18T03:43:49;100602.13;;;7.96;88.94
33845;BME280;20145;43.118;25.694;2022-12-18T03:46:20;100604.47;;;7.83;89.46
33845;BME280;20145;43.118;25.694;2022-12-18T03:48:52;100597.78;;;7.93;88.73
33845;BME280;20145;43.118;25.694;2022-12-18T03:51:23;100596.19;;;8.00;88.80
33845;BME280;20145;43.118;25.694;2022-12-18T03:53:59;100600.53;;;8.02;88.58
33845;BME280;20145;43.118;25.694;2022-12-18T03:56:26;100608.59;;;8.24;87.33
33845;BME280;20145;43.118;25.694;2022-12-18T03:58:53;100607.06;;;8.35;88.06
33845;BME280;20145;43.118;25.694;2022-12-18T04:01:20;100614.13;;;8.45;87.33
33845;BME280;20145;43.118;25.694;2022-12-18T04:03:48;100626.22;;;8.51;86.54
33845;BME280;20145;43.118;25.694;2022-12-18T04:06:14;100632.19;;;8.48;86.39
33845;BME280;20145;43.118;25.694;2022-12-18T04:08:40;100630.16;;;8.32;84.98
33845;BME280;20145;43.118;25.694;2022-12-18T04:11:06;100632.06;;;8.41;85.67
33845;BME280;20145;43.118;25.694;2022-12-18T04:13:33;100645.78;;;8.40;84.95
33845;BME280;20145;43.118;25.694;2022-12-18T04:15:59;100641.94;;;8.18;86.17
33845;BME280;20145;43.118;25.694;2022-12-18T04:18:25;100644.56;;;8.22;86.19
33845;BME280;20145;43.118;25.694;2022-12-18T04:20:50;100645.66;;;8.35;86.66
33845;BME280;20145;43.118;25.694;2022-12-18T04:23:16;100646.69;;;8.45;85.19
33845;BME280;20145;43.118;25.694;2022-12-18T04:25:41;100659.72;;;8.54;85.53
33845;BME280;20145;43.118;25.694;2022-12-18T04:28:07;100653.72;;;8.55;84.66
33845;BME280;20145;43.118;25.694;2022-12-18T04:30:32;100654.63;;;8.57;84.60
33845;BME280;20145;43.118;25.694;2022-12-18T04:32:57;100664.09;;;8.61;84.19
33845;BME280;20145;43.118;25.694;2022-12-18T04:35:23;100664.19;;;8.66;84.35
33845;BME280;20145;43.118;25.694;2022-12-18T04:37:48;100670.88;;;8.55;84.28
33845;BME280;20145;43.118;25.694;2022-12-18T04:40:14;100665.63;;;8.50;83.72
33845;BME280;20145;43.118;25.694;2022-12-18T04:42:39;100678.59;;;8.56;83.81
33845;BME280;20145;43.118;25.694;2022-12-18T04:45:05;100681.06;;;8.50;83.77
33845;BME280;20145;43.118;25.694;2022-12-18T04:47:31;100681.00;;;8.45;82.73
33845;BME280;20145;43.118;25.694;2022-12-18T04:49:56;100694.63;;;8.40;84.18
33845;BME280;20145;43.118;25.694;2022-12-18T04:52:22;100688.78;;;8.48;83.37
33845;BME280;20145;43.118;25.694;2022-12-18T04:54:47;100694.72;;;8.46;84.29
33845;BME280;20145;43.118;25.694;2022-12-18T04:57:12;100688.63;;;8.42;83.60
33845;BME280;20145;43.118;25.694;2022-12-18T04:59:38;100696.34;;;8.42;83.08
33845;BME280;20145;43.118;25.694;2022-12-18T05:02:03;100699.53;;;8.29;83.68
33845;BME280;20145;43.118;25.694;2022-12-18T05:04:29;100706.09;;;8.13;84.79
33845;BME280;20145;43.118;25.694;2022-12-18T05:06:54;100715.41;;;8.07;84.61
33845;BME280;20145;43.118;25.694;2022-12-18T05:09:19;100723.66;;;7.92;85.88
33845;BME280;20145;43.118;25.694;2022-12-18T05:11:45;100726.06;;;7.82;85.88
33845;BME280;20145;43.118;25.694;2022-12-18T05:14:11;100728.44;;;7.73;85.62
33845;BME280;20145;43.118;25.694;2022-12-18T05:16:37;100732.56;;;7.67;86.44
33845;BME280;20145;43.118;25.694;2022-12-18T05:19:02;100737.81;;;7.71;87.22
33845;BME280;20145;43.118;25.694;2022-12-18T05:21:27;100735.69;;;7.52;87.74
33845;BME280;20145;43.118;25.694;2022-12-18T05:23:53;100741.28;;;7.73;87.56
33845;BME280;20145;43.118;25.694;2022-12-18T05:26:18;100749.75;;;7.69;87.14
33845;BME280;20145;43.118;25.694;2022-12-18T05:28:44;100745.41;;;7.65;87.44
33845;BME280;20145;43.118;25.694;2022-12-18T05:31:10;100747.19;;;7.69;87.18
33845;BME280;20145;43.118;25.694;2022-12-18T05:33:35;100747.59;;;7.89;86.52
33845;BME280;20145;43.118;25.694;2022-12-18T05:36:01;100756.47;;;8.05;86.09
33845;BME280;20145;43.118;25.694;2022-12-18T05:38:28;100755.78;;;8.14;85.49
33845;BME280;20145;43.118;25.694;2022-12-18T05:40:54;100758.56;;;8.24;85.54
33845;BME280;20145;43.118;25.694;2022-12-18T05:43:20;100766.47;;;8.34;85.40
33845;BME280;20145;43.118;25.694;2022-12-18T05:45:49;100766.56;;;8.38;85.03
33845;BME280;20145;43.118;25.694;2022-12-18T05:48:15;100762.31;;;8.39;84.78
33845;BME280;20145;43.118;25.694;2022-12-18T05:50:41;100770.16;;;8.46;84.43
33845;BME280;20145;43.118;25.694;2022-12-18T05:53:07;100773.66;;;8.50;84.68
33845;BME280;20145;43.118;25.694;2022-12-18T05:55:33;100786.38;;;8.42;84.54
33845;BME280;20145;43.118;25.694;2022-12-18T05:57:59;100784.63;;;8.40;84.70
33845;BME280;20145;43.118;25.694;2022-12-18T06:00:25;100789.69;;;8.38;84.41
33845;BME280;20145;43.118;25.694;2022-12-18T06:02:50;100799.75;;;8.26;85.00
33845;BME280;20145;43.118;25.694;2022-12-18T06:05:16;100798.81;;;8.22;84.67
33845;BME280;20145;43.118;25.694;2022-12-18T06:07:41;100811.31;;;8.04;86.45
33845;BME280;20145;43.118;25.694;2022-12-18T06:10:07;100801.75;;;7.98;86.50
33845;BME280;20145;43.118;25.694;2022-12-18T06:12:38;100814.50;;;7.94;87.02
33845;BME280;20145;43.118;25.694;2022-12-18T06:15:04;100814.38;;;7.88;86.61
33845;BME280;20145;43.118;25.694;2022-12-18T06:17:30;100824.75;;;7.92;86.47
33845;BME280;20145;43.118;25.694;2022-12-18T06:19:56;100828.38;;;8.02;87.59
33845;BME280;20145;43.118;25.694;2022-12-18T06:22:22;100828.56;;;8.10;86.67
33845;BME280;20145;43.118;25.694;2022-12-18T06:24:47;100833.66;;;8.08;86.08
33845;BME280;20145;43.118;25.694;2022-12-18T06:27:12;100831.81;;;8.02;86.04
33845;BME280;20145;43.118;25.694;2022-12-18T06:29:38;100837.81;;;8.03;86.15
33845;BME280;20145;43.118;25.694;2022-12-18T06:32:04;100845.66;;;8.08;85.54
33845;BME280;20145;43.118;25.694;2022-12-18T06:34:32;100854.22;;;7.70;84.60
33845;BME280;20145;43.118;25.694;2022-12-18T06:36:57;100865.53;;;7.77;84.86
33845;BME280;20145;43.118;25.694;2022-12-18T06:39:23;100867.00;;;7.67;82.56
33845;BME280;20145;43.118;25.694;2022-12-18T06:41:48;100867.97;;;7.71;83.36
33845;BME280;20145;43.118;25.694;2022-12-18T06:44:14;100863.13;;;7.85;83.05
33845;BME280;20145;43.118;25.694;2022-12-18T06:46:39;100864.91;;;7.87;83.04
33845;BME280;20145;43.118;25.694;2022-12-18T06:49:04;100874.59;;;7.99;80.67
33845;BME280;20145;43.118;25.694;2022-12-18T06:51:30;100872.75;;;7.93;80.67
33845;BME280;20145;43.118;25.694;2022-12-18T06:53:55;100875.19;;;7.89;80.91
33845;BME280;20145;43.118;25.694;2022-12-18T06:56:21;100879.84;;;8.05;80.06
33845;BME280;20145;43.118;25.694;2022-12-18T06:58:46;100884.50;;;8.23;79.62
33845;BME280;20145;43.118;25.694;2022-12-18T07:01:12;100882.22;;;8.35;79.52
33845;BME280;20145;43.118;25.694;2022-12-18T07:03:38;100882.28;;;8.38;79.14
33845;BME280;20145;43.118;25.694;2022-12-18T07:06:04;100902.94;;;8.40;78.00
33845;BME280;20145;43.118;25.694;2022-12-18T07:08:30;100899.63;;;8.45;77.66
33845;BME280;20145;43.118;25.694;2022-12-18T07:10:56;100901.38;;;8.48;77.99
33845;BME280;20145;43.118;25.694;2022-12-18T07:13:21;100909.97;;;8.50;78.39
33845;BME280;20145;43.118;25.694;2022-12-18T07:15:46;100908.31;;;8.52;77.97
33845;BME280;20145;43.118;25.694;2022-12-18T07:18:12;100909.22;;;8.54;77.32
33845;BME280;20145;43.118;25.694;2022-12-18T07:20:37;100917.81;;;8.56;77.73
33845;BME280;20145;43.118;25.694;2022-12-18T07:23:03;100914.38;;;8.54;76.40
33845;BME280;20145;43.118;25.694;2022-12-18T07:25:28;100919.28;;;8.45;77.22
33845;BME280;20145;43.118;25.694;2022-12-18T07:27:54;100921.06;;;8.46;76.90
33845;BME280;20145;43.118;25.694;2022-12-18T07:30:19;100925.22;;;8.41;77.06
33845;BME280;20145;43.118;25.694;2022-12-18T07:32:45;100917.53;;;8.42;77.07
33845;BME280;20145;43.118;25.694;2022-12-18T07:35:10;100924.44;;;8.45;77.38
33845;BME280;20145;43.118;25.694;2022-12-18T07:37:35;100930.38;;;8.42;76.98
33845;BME280;20145;43.118;25.694;2022-12-18T07:40:01;100931.91;;;8.34;76.49
33845;BME280;20145;43.118;25.694;2022-12-18T07:42:26;100934.72;;;8.43;76.61
33845;BME280;20145;43.118;25.694;2022-12-18T07:45:00;100938.19;;;8.45;76.62
33845;BME280;20145;43.118;25.694;2022-12-18T07:47:26;100936.22;;;8.35;77.02
33845;BME280;20145;43.118;25.694;2022-12-18T07:49:52;100939.88;;;8.45;77.96
33845;BME280;20145;43.118;25.694;2022-12-18T07:52:17;100942.00;;;8.64;77.17
33845;BME280;20145;43.118;25.694;2022-12-18T07:54:42;100935.41;;;8.77;74.89
33845;BME280;20145;43.118;25.694;2022-12-18T07:57:08;100937.22;;;8.81;76.25
33845;BME280;20145;43.118;25.694;2022-12-18T07:59:34;100942.44;;;8.86;74.98
33845;BME280;20145;43.118;25.694;2022-12-18T08:01:59;100947.09;;;9.05;74.31
33845;BME280;20145;43.118;25.694;2022-12-18T08:04:25;100956.75;;;9.17;74.45
33845;BME280;20145;43.118;25.694;2022-12-18T08:06:50;100951.66;;;9.19;74.78
33845;BME280;20145;43.118;25.694;2022-12-18T08:09:15;100949.91;;;9.18;74.21
33845;BME280;20145;43.118;25.694;2022-12-18T08:11:41;100954.13;;;9.14;73.41
33845;BME280;20145;43.118;25.694;2022-12-18T08:14:06;100953.13;;;9.06;73.35
33845;BME280;20145;43.118;25.694;2022-12-18T08:16:32;100957.38;;;9.04;73.98
33845;BME280;20145;43.118;25.694;2022-12-18T08:18:57;100955.63;;;9.03;74.77
33845;BME280;20145;43.118;25.694;2022-12-18T08:21:26;100956.28;;;8.91;74.78
33845;BME280;20145;43.118;25.694;2022-12-18T08:23:52;100965.06;;;9.01;74.73
33845;BME280;20145;43.118;25.694;2022-12-18T08:26:27;100964.78;;;8.87;74.66
33845;BME280;20145;43.118;25.694;2022-12-18T08:28:53;100965.59;;;8.84;74.96
33845;BME280;20145;43.118;25.694;2022-12-18T08:31:19;100964.00;;;8.91;74.33
33845;BME280;20145;43.118;25.694;2022-12-18T08:33:44;100959.38;;;8.75;75.09
33845;BME280;20145;43.118;25.694;2022-12-18T08:36:16;100965.06;;;8.60;76.19
33845;BME280;20145;43.118;25.694;2022-12-18T08:38:42;100959.63;;;8.46;75.83
33845;BME280;20145;43.118;25.694;2022-12-18T08:41:09;100963.03;;;8.45;76.20
33845;BME280;20145;43.118;25.694;2022-12-18T08:43:34;100968.50;;;8.22;76.22
33845;BME280;20145;43.118;25.694;2022-12-18T08:46:19;100960.63;;;8.53;76.20
33845;BME280;20145;43.118;25.694;2022-12-18T08:48:45;100953.19;;;8.65;73.26
33845;BME280;20145;43.118;25.694;2022-12-18T08:51:11;100954.78;;;8.61;72.47
33845;BME280;20145;43.118;25.694;2022-12-18T08:53:36;100948.09;;;8.68;73.50
33845;BME280;20145;43.118;25.694;2022-12-18T08:56:02;100947.75;;;8.95;73.65
33845;BME280;20145;43.118;25.694;2022-12-18T08:58:27;100956.91;;;8.81;72.65
33845;BME280;20145;43.118;25.694;2022-12-18T09:00:53;100948.22;;;8.76;70.61
33845;BME280;20145;43.118;25.694;2022-12-18T09:03:18;100949.00;;;8.71;69.65
33845;BME280;20145;43.118;25.694;2022-12-18T09:05:45;100945.47;;;8.65;69.32
33845;BME280;20145;43.118;25.694;2022-12-18T09:08:11;100947.38;;;8.75;69.50
33845;BME280;20145;43.118;25.694;2022-12-18T09:10:43;100943.41;;;8.91;69.92
33845;BME280;20145;43.118;25.694;2022-12-18T09:13:09;100947.84;;;9.00;69.77
33845;BME280;20145;43.118;25.694;2022-12-18T09:15:39;100940.97;;;8.99;69.62
33845;BME280;20145;43.118;25.694;2022-12-18T09:18:05;100942.53;;;8.92;70.56
33845;BME280;20145;43.118;25.694;2022-12-18T09:20:30;100954.81;;;9.05;71.34
33845;BME280;20145;43.118;25.694;2022-12-18T09:22:55;100952.41;;;9.13;71.52
33845;BME280;20145;43.118;25.694;2022-12-18T09:25:20;100948.97;;;9.14;70.48
33845;BME280;20145;43.118;25.694;2022-12-18T09:27:47;100952.50;;;9.19;70.79
33845;BME280;20145;43.118;25.694;2022-12-18T09:30:13;100951.22;;;8.96;70.77
33845;BME280;20145;43.118;25.694;2022-12-18T09:32:38;100948.16;;;8.71;72.99
33845;BME280;20145;43.118;25.694;2022-12-18T09:35:04;100950.72;;;8.71;72.37
33845;BME280;20145;43.118;25.694;2022-12-18T09:37:29;100958.41;;;8.69;73.35
33845;BME280;20145;43.118;25.694;2022-12-18T09:39:55;100957.66;;;8.74;73.56
33845;BME280;20145;43.118;25.694;2022-12-18T09:42:21;100964.09;;;8.96;72.45
33845;BME280;20145;43.118;25.694;2022-12-18T09:44:50;100959.97;;;9.05;70.94
33845;BME280;20145;43.118;25.694;2022-12-18T09:47:22;100958.16;;;8.59;71.22
33845;BME280;20145;43.118;25.694;2022-12-18T09:49:49;100949.41;;;8.91;71.74
33845;BME280;20145;43.118;25.694;2022-12-18T09:54:52;100956.03;;;8.79;71.30
33845;BME280;20145;43.118;25.694;2022-12-18T09:57:21;100951.69;;;8.78;69.64
33845;BME280;20145;43.118;25.694;2022-12-18T09:59:50;100955.34;;;8.89;69.46
33845;BME280;20145;43.118;25.694;2022-12-18T10:02:21;100958.78;;;8.88;69.50
33845;BME280;20145;43.118;25.694;2022-12-18T10:04:55;100958.69;;;8.83;69.64
33845;BME280;20145;43.118;25.694;2022-12-18T10:07:28;100959.47;;;8.79;67.48
33845;BME280;20145;43.118;25.694;2022-12-18T10:10:10;100959.25;;;8.70;68.34
33845;BME280;20145;43.118;25.694;2022-12-18T10:15:30;100955.88;;;8.73;67.62
33845;BME280;20145;43.118;25.694;2022-12-18T10:18:01;100964.63;;;8.81;66.76
33845;BME280;20145;43.118;25.694;2022-12-18T10:30:54;100956.00;;;8.77;66.54
33845;BME280;20145;43.118;25.694;2022-12-18T10:33:21;100954.53;;;8.90;66.14
33845;BME280;20145;43.118;25.694;2022-12-18T10:35:48;100954.66;;;8.96;65.76
33845;BME280;20145;43.118;25.694;2022-12-18T10:40:56;100959.00;;;9.00;65.66
33845;BME280;20145;43.118;25.694;2022-12-18T10:43:30;100950.88;;;9.24;65.87
33845;BME280;20145;43.118;25.694;2022-12-18T10:46:03;100961.78;;;9.09;65.85
33845;BME280;20145;43.118;25.694;2022-12-18T10:48:30;100967.25;;;9.26;65.52
33845;BME280;20145;43.118;25.694;2022-12-18T10:51:06;100970.22;;;9.49;65.87
33845;BME280;20145;43.118;25.694;2022-12-18T10:53:32;100970.97;;;9.92;65.20
33845;BME280;20145;43.118;25.694;2022-12-18T10:56:03;100971.19;;;10.08;63.20
33845;BME280;20145;43.118;25.694;2022-12-18T11:01:15;100966.03;;;10.08;64.05
33845;BME280;20145;43.118;25.694;2022-12-18T11:04:04;100972.91;;;10.07;63.06
33845;BME280;20145;43.118;25.694;2022-12-18T11:06:28;100974.56;;;10.03;64.71
33845;BME280;20145;43.118;25.694;2022-12-18T11:09:38;100969.59;;;10.14;63.56
33845;BME280;20145;43.118;25.694;2022-12-18T11:12:13;100974.00;;;9.70;64.49
33845;BME280;20145;43.118;25.694;2022-12-18T11:23:00;100969.50;;;9.56;63.38
33845;BME280;20145;43.118;25.694;2022-12-18T11:25:30;100979.97;;;9.66;64.83
33845;BME280;20145;43.118;25.694;2022-12-18T11:33:36;100985.13;;;9.66;66.32
33845;BME280;20145;43.118;25.694;2022-12-18T11:38:48;100986.84;;;9.65;63.61
33845;BME280;20145;43.118;25.694;2022-12-18T11:41:23;100980.72;;;9.61;62.49
33845;BME280;20145;43.118;25.694;2022-12-18T11:44:26;100976.19;;;9.47;63.28
33845;BME280;20145;43.118;25.694;2022-12-18T11:49:45;100991.56;;;9.42;64.30
33845;BME280;20145;43.118;25.694;2022-12-18T11:52:18;100990.97;;;9.11;64.57
33845;BME280;20145;43.118;25.694;2022-12-18T11:54:58;100998.34;;;8.93;65.27
33845;BME280;20145;43.118;25.694;2022-12-18T12:05:35;100989.53;;;8.82;65.15
33845;BME280;20145;43.118;25.694;2022-12-18T12:39:14;100994.31;;;7.91;68.36
33845;BME280;20145;43.118;25.694;2022-12-18T12:41:53;100999.06;;;8.10;67.91
33845;BME280;20145;43.118;25.694;2022-12-18T12:44:42;101002.78;;;8.23;67.02
33845;BME280;20145;43.118;25.694;2022-12-18T12:50:06;101007.91;;;8.21;67.54
33845;BME280;20145;43.118;25.694;2022-12-18T12:52:45;101018.25;;;8.24;65.86
33845;BME280;20145;43.118;25.694;2022-12-18T12:55:20;101024.56;;;8.01;64.46
33845;BME280;20145;43.118;25.694;2022-12-18T12:58:12;101022.16;;;8.09;65.13
33845;BME280;20145;43.118;25.694;2022-12-18T13:03:23;101023.59;;;8.34;65.75
33845;BME280;20145;43.118;25.694;2022-12-18T13:14:19;101057.16;;;7.70;66.04
33845;BME280;20145;43.118;25.694;2022-12-18T13:16:50;101062.41;;;7.73;66.82
33845;BME280;20145;43.118;25.694;2022-12-18T13:19:25;101065.91;;;7.77;67.36
33845;BME280;20145;43.118;25.694;2022-12-18T13:21:55;101061.78;;;7.83;66.76
33845;BME280;20145;43.118;25.694;2022-12-18T13:24:30;101070.06;;;7.72;67.31
33845;BME280;20145;43.118;25.694;2022-12-18T13:26:55;101064.91;;;7.72;66.76
33845;BME280;20145;43.118;25.694;2022-12-18T13:29:41;101072.47;;;7.66;67.60
33845;BME280;20145;43.118;25.694;2022-12-18T13:38:00;101076.53;;;7.57;67.87
33845;BME280;20145;43.118;25.694;2022-12-18T13:45:44;101089.91;;;7.46;69.20
33845;BME280;20145;43.118;25.694;2022-12-18T13:48:21;101087.59;;;7.56;68.85
33845;BME280;20145;43.118;25.694;2022-12-18T13:50:55;101086.09;;;7.63;68.62
33845;BME280;20145;43.118;25.694;2022-12-18T13:53:23;101090.47;;;7.67;68.15
33845;BME280;20145;43.118;25.694;2022-12-18T13:55:56;101094.66;;;7.64;68.76
33845;BME280;20145;43.118;25.694;2022-12-18T13:58:22;101094.28;;;7.50;69.49
33845;BME280;20145;43.118;25.694;2022-12-18T14:00:48;101093.44;;;7.49;69.41
33845;BME280;20145;43.118;25.694;2022-12-18T14:03:18;101088.50;;;7.57;68.94
33845;BME280;20145;43.118;25.694;2022-12-18T14:05:46;101091.16;;;7.60;68.60
33845;BME280;20145;43.118;25.694;2022-12-18T14:08:35;101098.72;;;7.55;68.68
33845;BME280;20145;43.118;25.694;2022-12-18T14:11:19;101112.72;;;7.67;69.32
33845;BME280;20145;43.118;25.694;2022-12-18T14:13:46;101105.69;;;7.59;69.10
33845;BME280;20145;43.118;25.694;2022-12-18T14:16:13;101110.09;;;7.64;68.92
33845;BME280;20145;43.118;25.694;2022-12-18T14:21:29;101107.59;;;7.67;69.89
33845;BME280;20145;43.118;25.694;2022-12-18T14:26:40;101124.16;;;7.78;69.45
33845;BME280;20145;43.118;25.694;2022-12-18T14:29:21;101119.00;;;7.76;69.06
33845;BME280;20145;43.118;25.694;2022-12-18T14:32:03;101110.16;;;7.67;68.79
33845;BME280;20145;43.118;25.694;2022-12-18T14:34:29;101115.38;;;7.70;68.99
33845;BME280;20145;43.118;25.694;2022-12-18T14:36:56;101121.44;;;7.72;68.77
33845;BME280;20145;43.118;25.694;2022-12-18T14:39:32;101122.91;;;7.62;69.44
33845;BME280;20145;43.118;25.694;2022-12-18T14:41:58;101138.25;;;7.60;69.64
33845;BME280;20145;43.118;25.694;2022-12-18T14:44:23;101133.66;;;7.49;70.74
33845;BME280;20145;43.118;25.694;2022-12-18T14:46:55;101136.25;;;7.50;69.88
33845;BME280;20145;43.118;25.694;2022-12-18T14:51:49;101145.44;;;7.42;71.55
33845;BME280;20145;43.118;25.694;2022-12-18T14:54:16;101139.50;;;7.45;71.54
33845;BME280;20145;43.118;25.694;2022-12-18T14:56:44;101131.88;;;7.46;71.01
33845;BME280;20145;43.118;25.694;2022-12-18T15:01:46;101137.53;;;7.34;71.61
33845;BME280;20145;43.118;25.694;2022-12-18T15:04:28;101141.66;;;7.29;71.69
33845;BME280;20145;43.118;25.694;2022-12-18T15:07:04;101140.03;;;7.33;71.50
33845;BME280;20145;43.118;25.694;2022-12-18T15:09:29;101150.72;;;7.18;72.52
33845;BME280;20145;43.118;25.694;2022-12-18T15:11:56;101151.69;;;7.22;72.49
33845;BME280;20145;43.118;25.694;2022-12-18T15:14:22;101148.88;;;7.14;72.96